Time;durP1;ratioP1;P1;durP2;ratioP2;P2;SDS_P1;SDS_P2;PMS_P1;PMS_P2;Temp;Humidity;BMP_temperature;BMP_pressure;BME280_temperature;BME280_humidity;BME280_pressure;Samples;Min_cycle;Max_cycle;Signal;HPM_P1;HPM_P2
2021/12/03 00:00:22;;;;;;;45.30;22.00;;;;;;;-1.60;100.00;100919.84;5029089;28;20102;-86
2021/12/03 00:02:48;;;;;;;49.17;24.48;;;;;;;-1.54;100.00;100922.47;5046426;28;20059;-85
2021/12/03 00:05:13;;;;;;;37.15;22.98;;;;;;;-1.53;100.00;100917.25;5038218;28;20072;-86
2021/12/03 00:07:41;;;;;;;44.22;24.58;;;;;;;-1.46;100.00;100930.28;5027947;28;20032;-86
2021/12/03 00:10:08;;;;;;;47.47;25.33;;;;;;;-1.49;100.00;100928.56;5027499;28;20025;-86
2021/12/03 00:12:34;;;;;;;48.22;24.85;;;;;;;-1.53;100.00;100912.03;5039906;28;20470;-86
2021/12/03 00:15:00;;;;;;;45.25;24.40;;;;;;;-1.45;100.00;100916.38;5037482;28;20151;-86
2021/12/03 00:17:25;;;;;;;51.08;26.67;;;;;;;-1.41;100.00;100926.81;5030495;28;20092;-86
2021/12/03 00:19:50;;;;;;;48.20;27.02;;;;;;;-1.37;100.00;100922.47;5032294;28;20479;-84
2021/12/03 00:22:16;;;;;;;47.13;26.83;;;;;;;-1.38;100.00;100928.53;5033745;28;20034;-86
2021/12/03 00:24:41;;;;;;;54.20;27.52;;;;;;;-1.49;100.00;100919.88;5033119;28;20162;-86
2021/12/03 00:27:07;;;;;;;54.97;27.67;;;;;;;-1.39;100.00;100938.13;5038921;28;20028;-86
2021/12/03 00:29:32;;;;;;;54.42;28.25;;;;;;;-1.39;100.00;100940.72;5051410;28;20021;-86
2021/12/03 00:31:58;;;;;;;49.28;28.15;;;;;;;-1.39;100.00;100945.09;5049686;28;20371;-85
2021/12/03 00:34:24;;;;;;;58.88;27.73;;;;;;;-1.42;100.00;100930.31;5038851;28;20101;-85
2021/12/03 00:36:50;;;;;;;52.22;27.67;;;;;;;-1.44;100.00;100929.41;5042241;28;20044;-84
2021/12/03 00:39:15;;;;;;;55.38;28.58;;;;;;;-1.45;100.00;100937.28;5050746;28;20106;-86
2021/12/03 00:41:46;;;;;;;50.97;27.75;;;;;;;-1.47;100.00;100939.00;5040158;28;20040;-85
2021/12/03 00:44:12;;;;;;;47.40;28.58;;;;;;;-1.51;100.00;100938.97;5040570;28;20092;-85
2021/12/03 00:46:38;;;;;;;54.15;27.98;;;;;;;-1.56;100.00;100943.34;5050976;28;20032;-84
2021/12/03 00:49:04;;;;;;;50.60;29.75;;;;;;;-1.58;100.00;100945.09;5050303;28;20029;-84
2021/12/03 00:51:29;;;;;;;54.30;29.85;;;;;;;-1.68;100.00;100939.84;5049869;28;20029;-85
2021/12/03 00:53:54;;;;;;;51.58;30.60;;;;;;;-1.62;100.00;100945.97;5049239;28;20510;-86
2021/12/03 00:56:20;;;;;;;53.15;30.35;;;;;;;-1.67;100.00;100947.72;5033593;28;20028;-86
2021/12/03 00:58:45;;;;;;;51.70;30.20;;;;;;;-1.72;100.00;100941.59;5030795;28;20021;-85
2021/12/03 01:01:11;;;;;;;58.50;29.63;;;;;;;-1.80;100.00;100932.88;5041798;28;20296;-85
2021/12/03 01:03:38;;;;;;;55.63;28.52;;;;;;;-1.77;100.00;100953.78;5031741;28;20108;-86
2021/12/03 01:06:04;;;;;;;56.30;30.73;;;;;;;-1.79;100.00;100945.09;5041427;28;20115;-86
2021/12/03 01:08:31;;;;;;;59.95;31.30;;;;;;;-1.76;100.00;100956.41;5040929;28;20372;-85
2021/12/03 01:10:57;;;;;;;52.53;31.95;;;;;;;-1.73;100.00;100955.50;5031702;28;20029;-86
2021/12/03 01:13:22;;;;;;;63.50;33.38;;;;;;;-1.74;100.00;100952.91;5047462;28;20032;-85
2021/12/03 01:15:48;;;;;;;57.00;32.20;;;;;;;-1.75;100.00;100946.81;5035269;28;20034;-86
2021/12/03 01:18:14;;;;;;;60.95;31.80;;;;;;;-1.83;100.00;100941.59;5016383;28;20025;-85
2021/12/03 01:20:42;;;;;;;67.10;32.35;;;;;;;-1.80;100.00;100959.88;5030272;28;20115;-85
2021/12/03 01:23:09;;;;;;;66.35;33.78;;;;;;;-1.80;100.00;100956.38;5029084;28;20030;-85
2021/12/03 01:25:34;;;;;;;59.35;31.67;;;;;;;-1.81;100.00;100959.84;5041390;28;20033;-86
2021/12/03 01:28:01;;;;;;;66.00;32.70;;;;;;;-1.78;100.00;100965.09;5049688;28;20039;-85
2021/12/03 01:30:28;;;;;;;69.45;34.30;;;;;;;-1.83;100.00;100959.00;5030442;28;20024;-86
2021/12/03 01:32:54;;;;;;;70.10;34.50;;;;;;;-1.78;100.00;100970.28;5044751;28;20033;-86
2021/12/03 01:35:20;;;;;;;67.20;33.38;;;;;;;-1.70;100.00;100979.00;5044319;28;20032;-86
2021/12/03 01:37:46;;;;;;;70.47;33.10;;;;;;;-1.68;100.00;100976.41;5050632;28;20421;-86
2021/12/03 01:40:16;;;;;;;67.75;32.45;;;;;;;-1.71;100.00;100965.94;5049099;28;20032;-86
2021/12/03 01:42:44;;;;;;;71.40;34.47;;;;;;;-1.68;100.00;100956.38;5048689;28;20034;-86
2021/12/03 01:45:15;;;;;;;72.28;33.70;;;;;;;-1.60;100.00;100967.69;5035063;28;20116;-86
2021/12/03 01:47:46;;;;;;;76.70;35.78;;;;;;;-1.53;100.00;100960.75;5038524;28;20032;-86
2021/12/03 01:50:13;;;;;;;83.70;36.88;;;;;;;-1.51;100.00;100946.81;5031321;28;20033;-86
2021/12/03 01:52:39;;;;;;;79.60;37.72;;;;;;;-1.41;100.00;100942.47;5048950;28;20025;-86
2021/12/03 01:55:08;;;;;;;97.43;41.53;;;;;;;-1.32;100.00;100946.84;5037492;28;20065;-85
2021/12/03 01:57:33;;;;;;;93.32;40.80;;;;;;;-1.27;100.00;100945.06;5050117;28;20032;-85
2021/12/03 01:59:59;;;;;;;102.55;41.50;;;;;;;-1.19;100.00;100945.94;5048978;28;20029;-85
2021/12/03 02:02:26;;;;;;;99.47;41.30;;;;;;;-1.12;100.00;100944.22;5029502;28;20406;-86
2021/12/03 02:04:52;;;;;;;104.13;42.50;;;;;;;-1.11;100.00;100944.19;5045213;28;20032;-86
2021/12/03 02:07:17;;;;;;;105.32;41.40;;;;;;;-1.01;100.00;100950.25;5029117;28;20029;-85
2021/12/03 02:09:42;;;;;;;99.85;40.92;;;;;;;-0.99;100.00;100945.06;5029307;28;20216;-86
2021/12/03 02:12:08;;;;;;;109.47;41.35;;;;;;;-0.96;100.00;100952.84;5036171;28;20031;-85
2021/12/03 02:14:34;;;;;;;103.40;39.63;;;;;;;-0.95;100.00;100952.88;5031707;28;20029;-86
2021/12/03 02:16:59;;;;;;;93.80;38.60;;;;;;;-0.96;100.00;100934.56;5022103;28;20018;-85
2021/12/03 02:19:24;;;;;;;81.60;35.72;;;;;;;-0.94;100.00;100941.53;5028904;28;20036;-85
2021/12/03 02:21:50;;;;;;;80.07;34.78;;;;;;;-0.94;100.00;100962.44;5032756;28;20029;-86
2021/12/03 02:24:15;;;;;;;77.78;33.85;;;;;;;-0.92;100.00;100958.09;5032157;28;20116;-85
2021/12/03 02:26:42;;;;;;;80.40;33.00;;;;;;;-0.90;100.00;100965.94;5032428;28;20104;-85
2021/12/03 02:29:08;;;;;;;69.20;30.33;;;;;;;-0.93;100.00;100948.50;5029967;28;20030;-85
2021/12/03 02:31:33;;;;;;;72.32;30.42;;;;;;;-0.85;100.00;100951.09;5030523;28;20037;-84
2021/12/03 02:33:59;;;;;;;66.65;31.02;;;;;;;-0.89;100.00;100947.63;5041060;28;20108;-84
2021/12/03 02:36:25;;;;;;;60.92;29.77;;;;;;;-0.83;100.00;100952.84;5030164;28;20054;-86
2021/12/03 02:38:50;;;;;;;69.97;31.92;;;;;;;-0.82;100.00;100957.19;5047362;28;20429;-85
2021/12/03 02:41:16;;;;;;;70.32;30.90;;;;;;;-0.86;100.00;100947.63;5045728;28;20111;-85
2021/12/03 02:43:42;;;;;;;64.25;29.33;;;;;;;-0.88;100.00;100948.50;5036917;28;20035;-85
2021/12/03 02:46:07;;;;;;;66.88;30.35;;;;;;;-0.96;100.00;100937.19;5036423;28;20022;-85
2021/12/03 02:48:35;;;;;;;60.13;29.67;;;;;;;-0.94;100.00;100949.38;5028711;28;20539;-84
2021/12/03 02:51:00;;;;;;;59.60;28.27;;;;;;;-0.98;100.00;100941.56;5034914;28;20033;-84
2021/12/03 02:53:26;;;;;;;60.95;29.13;;;;;;;-0.92;100.00;100941.53;5030405;28;20033;-84
2021/12/03 02:55:52;;;;;;;60.35;28.10;;;;;;;-0.92;100.00;100939.81;5033136;28;20021;-85
2021/12/03 02:58:18;;;;;;;63.03;29.90;;;;;;;-0.89;100.00;100941.53;5031014;28;20029;-85
2021/12/03 03:00:44;;;;;;;60.25;28.85;;;;;;;-0.94;100.00;100936.31;5047155;28;20107;-85
2021/12/03 03:03:10;;;;;;;64.18;29.98;;;;;;;-0.86;100.00;100946.75;5042748;28;20037;-86
2021/12/03 03:05:35;;;;;;;63.33;29.65;;;;;;;-0.86;100.00;100941.53;5046547;28;20078;-86
2021/12/03 03:08:00;;;;;;;62.05;28.52;;;;;;;-0.82;100.00;100943.25;5047611;28;20505;-85
2021/12/03 03:10:31;;;;;;;63.97;30.10;;;;;;;-0.78;100.00;100947.59;5041302;28;20033;-85
2021/12/03 03:12:58;;;;;;;67.20;31.38;;;;;;;-0.79;100.00;100933.69;5039018;28;20040;-85
2021/12/03 03:15:23;;;;;;;74.60;32.78;;;;;;;-0.88;100.00;100920.66;5028348;28;20047;-85
2021/12/03 03:17:49;;;;;;;78.93;35.42;;;;;;;-0.78;100.00;100926.69;5048582;28;20108;-85
2021/12/03 03:20:15;;;;;;;73.32;33.50;;;;;;;-0.76;100.00;100925.81;5047846;28;20032;-85
2021/12/03 03:22:42;;;;;;;72.72;32.60;;;;;;;-0.71;100.00;100927.53;5030488;28;20548;-85
2021/12/03 03:25:12;;;;;;;73.68;32.85;;;;;;;-0.70;100.00;100929.28;5042596;28;20037;-85
2021/12/03 03:27:38;;;;;;;75.63;35.67;;;;;;;-0.69;100.00;100929.28;5046571;28;20753;-85
2021/12/03 03:30:06;;;;;;;87.28;35.97;;;;;;;-0.68;100.00;100925.78;5046440;28;20059;-85
2021/12/03 03:32:32;;;;;;;77.97;35.85;;;;;;;-0.66;100.00;100934.50;5030533;28;20057;-85
2021/12/03 03:34:57;;;;;;;79.55;34.35;;;;;;;-0.69;100.00;100931.03;5045666;28;20119;-85
2021/12/03 03:37:22;;;;;;;80.82;35.50;;;;;;;-0.62;100.00;100938.84;5013853;28;20132;-85
2021/12/03 03:39:48;;;;;;;83.38;36.15;;;;;;;-0.60;100.00;100942.31;5028721;28;20049;-84
2021/12/03 03:42:14;;;;;;;78.03;34.35;;;;;;;-0.65;100.00;100936.22;5038542;28;20076;-85
2021/12/03 03:44:40;;;;;;;87.55;36.58;;;;;;;-0.57;100.00;100944.06;5045309;28;20083;-84
2021/12/03 03:47:07;;;;;;;82.05;35.72;;;;;;;-0.56;100.00;100944.03;5031635;28;20285;-84
2021/12/03 03:49:33;;;;;;;96.30;36.13;;;;;;;-0.58;100.00;100935.34;5044463;28;20037;-84
2021/12/03 03:51:59;;;;;;;94.40;39.83;;;;;;;-0.51;100.00;100942.28;5031577;28;20036;-85
2021/12/03 03:54:25;;;;;;;104.13;38.60;;;;;;;-0.53;100.00;100941.41;5032883;28;20041;-85
2021/12/03 03:56:50;;;;;;;100.47;37.95;;;;;;;-0.44;100.00;100929.19;5035243;28;20052;-84
2021/12/03 03:59:18;;;;;;;99.15;38.15;;;;;;;-0.44;100.00;100935.28;5031569;28;20056;-85
2021/12/03 04:01:48;;;;;;;95.00;37.22;;;;;;;-0.42;100.00;100920.44;5038770;28;20060;-85
2021/12/03 04:04:15;;;;;;;92.43;36.20;;;;;;;-0.38;100.00;100931.75;5030567;28;20426;-85
2021/12/03 04:06:42;;;;;;;80.43;32.47;;;;;;;-0.36;100.00;100924.78;5043011;28;20079;-85
2021/12/03 04:09:08;;;;;;;85.15;33.58;;;;;;;-0.38;100.00;100913.44;5030837;28;20108;-84
2021/12/03 04:11:33;;;;;;;80.35;33.92;;;;;;;-0.42;100.00;100906.50;5037871;28;20040;-85
2021/12/03 04:13:59;;;;;;;76.65;33.30;;;;;;;-0.32;100.00;100914.31;5032942;28;20041;-84
2021/12/03 04:16:24;;;;;;;77.28;35.75;;;;;;;-0.35;100.00;100901.22;5050693;28;20075;-85
2021/12/03 04:18:50;;;;;;;74.85;33.20;;;;;;;-0.32;100.00;100902.97;5051014;28;20079;-85
2021/12/03 04:21:15;;;;;;;78.03;35.22;;;;;;;-0.41;100.00;100879.50;5048936;28;20478;-84
2021/12/03 04:23:41;;;;;;;76.22;33.88;;;;;;;-0.25;100.00;100899.47;5037403;28;20034;-84
2021/12/03 04:26:07;;;;;;;76.28;32.97;;;;;;;-0.24;100.00;100897.72;5046809;28;20031;-83
2021/12/03 04:28:33;;;;;;;76.72;34.00;;;;;;;-0.24;100.00;100895.97;5051054;28;20021;-83
2021/12/03 04:30:59;;;;;;;76.82;32.67;;;;;;;-0.20;100.00;100905.53;5037871;28;20041;-84
2021/12/03 04:33:24;;;;;;;73.20;33.72;;;;;;;-0.30;100.00;100889.00;5042090;28;20025;-84
2021/12/03 04:35:50;;;;;;;75.88;33.55;;;;;;;-0.21;100.00;100893.31;5049008;28;20106;-83
2021/12/03 04:38:16;;;;;;;73.47;31.88;;;;;;;-0.19;100.00;100898.53;5037728;28;20036;-84
2021/12/03 04:40:43;;;;;;;78.93;33.47;;;;;;;-0.19;100.00;100901.16;5032414;28;20028;-84
2021/12/03 04:43:09;;;;;;;70.03;32.05;;;;;;;-0.18;100.00;100902.88;5041724;28;20082;-84
2021/12/03 04:45:35;;;;;;;72.93;32.28;;;;;;;-0.15;100.00;100915.97;5039265;28;20024;-85
2021/12/03 04:48:04;;;;;;;75.18;33.30;;;;;;;-0.15;100.00;100911.59;5050362;28;20033;-84
2021/12/03 04:50:33;;;;;;;78.53;34.55;;;;;;;-0.14;100.00;100917.69;5050558;28;20151;-83
2021/12/03 04:52:59;;;;;;;79.05;33.58;;;;;;;-0.17;100.00;100908.09;5044770;28;20087;-84
2021/12/03 04:55:25;;;;;;;79.00;33.53;;;;;;;-0.17;100.00;100915.94;5039687;28;20116;-84
2021/12/03 04:57:53;;;;;;;75.82;34.90;;;;;;;-0.20;100.00;100922.97;5047217;28;20029;-84
2021/12/03 05:00:26;;;;;;;74.25;32.65;;;;;;;-0.21;100.00;100922.06;5032289;28;20021;-84
2021/12/03 05:02:53;;;;;;;73.78;30.77;;;;;;;-0.23;100.00;100915.13;5048403;28;20382;-84
2021/12/03 05:05:19;;;;;;;71.00;32.10;;;;;;;-0.23;100.00;100909.91;5050506;28;20442;-84
2021/12/03 05:10:41;;;;;;;63.47;29.55;;;;;;;-0.21;100.00;100913.38;5021253;28;20033;-84
2021/12/03 05:13:14;;;;;;;62.22;29.02;;;;;;;-0.26;100.00;100882.00;5018970;28;20508;-83
2021/12/03 05:15:40;;;;;;;63.33;28.08;;;;;;;-0.29;100.00;100889.91;5030527;28;20074;-84
2021/12/03 05:18:07;;;;;;;55.00;27.63;;;;;;;-0.25;100.00;100891.63;5049030;28;20065;-84
2021/12/03 05:20:33;;;;;;;56.35;26.70;;;;;;;-0.26;100.00;100889.84;5044141;28;20032;-85
2021/12/03 05:22:59;;;;;;;57.17;25.65;;;;;;;-0.24;100.00;100889.88;5046598;28;20363;-84
2021/12/03 05:25:25;;;;;;;50.80;25.23;;;;;;;-0.22;100.00;100891.56;5049801;28;20161;-84
2021/12/03 05:27:51;;;;;;;50.42;23.92;;;;;;;-0.25;100.00;100886.38;5042775;28;20079;-85
2021/12/03 05:30:17;;;;;;;51.50;24.52;;;;;;;-0.29;100.00;100874.19;5030059;28;20537;-84
2021/12/03 05:32:42;;;;;;;44.08;23.50;;;;;;;-0.26;100.00;100885.47;5019231;28;20025;-84
2021/12/03 05:35:09;;;;;;;46.10;23.63;;;;;;;-0.25;100.00;100886.38;5048822;28;20154;-84
2021/12/03 05:37:34;;;;;;;49.05;22.48;;;;;;;-0.25;100.00;100886.38;5035111;28;20584;-84
2021/12/03 05:39:59;;;;;;;46.42;21.73;;;;;;;-0.31;100.00;100891.63;5037550;28;20112;-84
2021/12/03 05:42:25;;;;;;;45.47;20.60;;;;;;;-0.33;100.00;100888.16;5046504;28;20032;-85
2021/12/03 05:44:50;;;;;;;38.55;21.45;;;;;;;-0.32;100.00;100895.13;5049392;28;20386;-85
2021/12/03 05:47:16;;;;;;;43.83;19.98;;;;;;;-0.34;100.00;100891.63;5037220;28;20115;-85
2021/12/03 05:49:41;;;;;;;46.10;21.25;;;;;;;-0.43;100.00;100882.09;5029460;28;20470;-86
2021/12/03 05:52:07;;;;;;;43.15;20.58;;;;;;;-0.40;100.00;100904.75;5031206;28;20040;-85
2021/12/03 05:54:32;;;;;;;40.72;20.30;;;;;;;-0.45;100.00;100896.06;5029608;28;20087;-85
2021/12/03 05:56:57;;;;;;;40.03;19.73;;;;;;;-0.43;100.00;100907.38;5021832;28;20024;-86
2021/12/03 05:59:23;;;;;;;41.58;19.50;;;;;;;-0.44;100.00;100897.81;5048240;28;22684;-85
2021/12/03 06:01:48;;;;;;;39.78;18.55;;;;;;;-0.44;100.00;100900.41;5041526;28;20840;-86
2021/12/03 06:04:13;;;;;;;39.47;19.17;;;;;;;-0.46;100.00;100899.53;5028610;28;20034;-86
2021/12/03 06:06:39;;;;;;;46.65;18.95;;;;;;;-0.53;100.00;100888.25;5042054;28;20020;-85
2021/12/03 06:09:04;;;;;;;38.45;18.35;;;;;;;-0.50;100.00;100893.50;5029998;28;20068;-87
2021/12/03 06:11:30;;;;;;;40.33;17.67;;;;;;;-0.51;100.00;100892.59;5041392;28;20500;-86
2021/12/03 06:13:55;;;;;;;36.58;17.55;;;;;;;-0.53;100.00;100889.13;5032024;28;20155;-85
2021/12/03 06:16:20;;;;;;;39.47;18.00;;;;;;;-0.52;100.00;100887.38;5041050;28;20253;-85
2021/12/03 06:18:46;;;;;;;35.83;16.58;;;;;;;-0.52;100.00;100888.25;5049258;28;20029;-83
2021/12/03 06:21:12;;;;;;;37.08;15.85;;;;;;;-0.54;100.00;100878.69;5048417;28;20028;-84
2021/12/03 06:23:39;;;;;;;33.90;16.85;;;;;;;-0.55;100.00;100880.41;5040383;28;20280;-85
2021/12/03 06:26:06;;;;;;;38.80;18.38;;;;;;;-0.55;100.00;100880.41;5031337;28;20040;-86
2021/12/03 06:28:33;;;;;;;29.92;15.35;;;;;;;-0.53;100.00;100868.22;5047922;28;20032;-85
2021/12/03 06:30:58;;;;;;;33.22;15.50;;;;;;;-0.53;100.00;100875.19;5049783;28;20021;-86
2021/12/03 06:33:24;;;;;;;32.85;15.73;;;;;;;-0.53;100.00;100876.06;5043454;28;20079;-85
2021/12/03 06:35:50;;;;;;;28.60;13.65;;;;;;;-0.50;100.00;100880.41;5035930;28;20052;-85
2021/12/03 06:38:16;;;;;;;36.00;15.73;;;;;;;-0.58;100.00;100856.06;5033170;28;20079;-85
2021/12/03 06:40:43;;;;;;;32.90;14.63;;;;;;;-0.51;100.00;100874.28;5032260;28;20116;-85
2021/12/03 06:43:09;;;;;;;33.58;13.85;;;;;;;-0.48;100.00;100872.56;5022889;28;20116;-86
2021/12/03 06:45:34;;;;;;;35.17;14.48;;;;;;;-0.55;100.00;100867.34;5030401;28;20140;-85
2021/12/03 06:48:00;;;;;;;40.17;14.13;;;;;;;-0.51;100.00;100871.69;5031296;28;20067;-85
2021/12/03 06:50:25;;;;;;;36.13;13.32;;;;;;;-0.56;100.00;100873.44;5028717;28;20033;-85
2021/12/03 06:53:02;;;;;;;31.05;13.85;;;;;;;-0.51;100.00;100876.91;5041115;28;20466;-85
2021/12/03 06:55:28;;;;;;;25.52;12.32;;;;;;;-0.52;100.00;100869.94;5046882;28;20025;-87
2021/12/03 06:57:54;;;;;;;27.33;12.57;;;;;;;-0.51;100.00;100868.19;5046906;28;20025;-86
2021/12/03 07:00:22;;;;;;;29.73;11.93;;;;;;;-0.54;100.00;100869.09;5047140;28;20032;-83
2021/12/03 07:02:48;;;;;;;28.38;12.95;;;;;;;-0.55;100.00;100877.78;5046356;28;20260;-86
2021/12/03 07:05:14;;;;;;;29.15;11.95;;;;;;;-0.52;100.00;100890.84;5027286;28;20485;-86
2021/12/03 07:07:41;;;;;;;35.33;11.77;;;;;;;-0.59;100.00;100872.59;5031371;28;20254;-87
2021/12/03 07:10:07;;;;;;;28.77;11.02;;;;;;;-0.52;100.00;100884.75;5047840;28;20386;-89
2021/12/03 07:12:32;;;;;;;30.52;11.32;;;;;;;-0.55;100.00;100875.19;5037055;28;20483;-85
2021/12/03 07:14:58;;;;;;;25.80;10.15;;;;;;;-0.53;100.00;100873.44;5044443;28;20023;-85
2021/12/03 07:17:26;;;;;;;29.67;10.38;;;;;;;-0.53;100.00;100881.28;5043394;28;20123;-86
2021/12/03 07:19:55;;;;;;;28.60;10.23;;;;;;;-0.54;100.00;100879.56;5048279;28;20151;-86
2021/12/03 07:22:21;;;;;;;28.83;9.75;;;;;;;-0.51;100.00;100883.88;5044558;28;20093;-86
2021/12/03 07:24:46;;;;;;;30.42;10.82;;;;;;;-0.52;100.00;100875.19;5048163;28;20644;-86
2021/12/03 07:27:11;;;;;;;25.27;9.52;;;;;;;-0.55;100.00;100861.25;5048067;28;20470;-86
2021/12/03 07:29:37;;;;;;;30.02;9.10;;;;;;;-0.54;100.00;100853.41;5032443;28;20029;-86
2021/12/03 07:32:03;;;;;;;30.00;8.75;;;;;;;-0.49;100.00;100857.75;5044880;28;20477;-85
2021/12/03 07:34:28;;;;;;;21.23;8.02;;;;;;;-0.51;100.00;100852.50;5050983;28;20037;-86
2021/12/03 07:36:53;;;;;;;27.85;8.75;;;;;;;-0.51;100.00;100845.53;5044524;28;20413;-85
2021/12/03 07:39:18;;;;;;;24.95;9.00;;;;;;;-0.49;100.00;100853.38;5039950;28;20025;-85
2021/12/03 07:41:44;;;;;;;23.80;8.73;;;;;;;-0.49;100.00;100855.13;5044395;28;20040;-86
2021/12/03 07:44:09;;;;;;;27.73;8.50;;;;;;;-0.55;100.00;100835.97;5047692;28;20068;-86
2021/12/03 07:46:35;;;;;;;26.85;9.23;;;;;;;-0.45;100.00;100860.34;5044185;28;20029;-85
2021/12/03 07:49:00;;;;;;;26.77;8.95;;;;;;;-0.42;100.00;100864.66;5050177;28;20137;-85
2021/12/03 07:51:26;;;;;;;23.58;8.32;;;;;;;-0.44;100.00;100867.28;5046136;28;20056;-85
2021/12/03 07:53:52;;;;;;;26.98;8.70;;;;;;;-0.44;100.00;100864.69;5014098;28;20503;-89
2021/12/03 07:56:17;;;;;;;28.00;8.40;;;;;;;-0.39;100.00;100862.91;5036392;28;20017;-84
2021/12/03 07:58:43;;;;;;;25.80;8.60;;;;;;;-0.40;100.00;100855.06;5048914;28;20383;-84
2021/12/03 08:01:08;;;;;;;33.38;9.05;;;;;;;-0.35;100.00;100854.16;5034004;28;20338;-85
2021/12/03 08:03:33;;;;;;;21.35;7.90;;;;;;;-0.34;100.00;100853.28;5041378;28;20372;-86
2021/12/03 08:06:04;;;;;;;30.83;7.95;;;;;;;-0.28;100.00;100860.25;5049058;28;20030;-87
2021/12/03 08:08:31;;;;;;;23.90;8.02;;;;;;;-0.27;100.00;100859.34;5046292;28;20110;-85
2021/12/03 08:10:56;;;;;;;22.33;8.38;;;;;;;-0.22;100.00;100864.53;5046876;28;20032;-83
2021/12/03 08:13:21;;;;;;;24.35;7.35;;;;;;;-0.20;100.00;100854.97;5037317;28;20021;-85
2021/12/03 08:15:47;;;;;;;23.98;8.50;;;;;;;-0.21;100.00;100858.44;5031762;28;20072;-85
2021/12/03 08:18:12;;;;;;;24.13;7.15;;;;;;;-0.21;100.00;100864.53;5049102;28;20048;-85
2021/12/03 08:20:37;;;;;;;25.52;7.95;;;;;;;-0.23;100.00;100848.00;5048771;28;20021;-86
2021/12/03 08:23:03;;;;;;;22.40;7.50;;;;;;;-0.19;100.00;100854.94;5049972;28;20036;-86
2021/12/03 08:25:31;;;;;;;30.02;8.30;;;;;;;-0.20;100.00;100842.75;5033001;28;20036;-85
2021/12/03 08:27:56;;;;;;;21.00;7.00;;;;;;;-0.17;100.00;100832.25;5049843;28;20032;-86
2021/12/03 08:30:23;;;;;;;25.67;7.60;;;;;;;-0.09;100.00;100842.66;5050697;28;20111;-86
2021/12/03 08:32:48;;;;;;;25.95;7.80;;;;;;;-0.03;100.00;100840.00;5029492;28;20052;-85
2021/12/03 08:35:14;;;;;;;25.13;8.23;;;;;;;0.00;100.00;100845.22;5031754;28;20087;-86
2021/12/03 08:37:44;;;;;;;24.02;8.90;;;;;;;-0.10;100.00;100823.47;5049771;28;20037;-85
2021/12/03 08:40:11;;;;;;;23.58;8.07;;;;;;;0.09;100.00;100844.28;5046154;28;20052;-86
2021/12/03 08:42:36;;;;;;;25.20;9.30;;;;;;;0.11;100.00;100850.34;5042603;28;20043;-84
2021/12/03 08:45:04;;;;;;;30.98;9.45;;;;;;;0.15;100.00;100844.22;5050298;28;20025;-84
2021/12/03 08:47:29;;;;;;;26.40;9.50;;;;;;;0.24;100.00;100838.91;5046680;28;20056;-86
2021/12/03 08:49:56;;;;;;;32.88;10.68;;;;;;;0.19;100.00;100830.22;5049313;28;20058;-85
2021/12/03 08:54:54;;;;;;;24.38;8.57;;;;;;;0.21;100.00;100829.34;5033351;28;20112;-86
2021/12/03 08:57:32;;;;;;;22.67;8.93;;;;;;;0.29;100.00;100838.84;5043028;28;20067;-86
2021/12/03 09:00:10;;;;;;;22.27;7.47;;;;;;;0.32;100.00;100844.94;5031489;28;20021;-88
2021/12/03 09:02:36;;;;;;;28.13;8.93;;;;;;;0.28;100.00;100827.53;5048209;28;20025;-91
2021/12/03 09:05:02;;;;;;;18.60;8.55;;;;;;;0.43;100.00;100824.78;5049579;28;20029;-86
2021/12/03 09:07:27;;;;;;;30.30;9.82;;;;;;;0.52;100.00;100829.06;5044535;28;20102;-85
2021/12/03 09:09:52;;;;;;;16.83;7.72;;;;;;;0.59;100.00;100822.00;5049304;28;20065;-86
2021/12/03 09:12:18;;;;;;;27.10;7.95;;;;;;;0.65;99.62;100829.78;5036177;28;20375;-83
2021/12/03 09:14:50;;;;;;;21.15;8.30;;;;;;;0.56;99.20;100809.81;5049401;28;20029;-85
2021/12/03 09:20:28;;;;;;;24.50;7.68;;;;;;;0.68;99.01;100825.41;5045131;28;20116;-84
2021/12/03 09:22:58;;;;;;;21.02;7.90;;;;;;;0.69;99.26;100827.13;5046541;28;20398;-85
2021/12/03 09:25:32;;;;;;;26.77;8.18;;;;;;;0.75;99.08;100841.91;5012686;28;20033;-84
2021/12/03 09:27:59;;;;;;;;;;;;;;;0.73;99.82;100834.06;5033489;28;20109;-86
2021/12/03 09:30:25;;;;;;;21.35;6.80;;;;;;;0.69;98.84;100826.25;5032615;28;19924;-85
2021/12/03 09:32:54;;;;;;;16.33;7.03;;;;;;;0.73;99.13;100833.19;5049656;28;20022;-86
2021/12/03 09:35:20;;;;;;;26.83;8.07;;;;;;;0.70;99.71;100820.13;5031544;28;20491;-86
2021/12/03 09:37:45;;;;;;;18.17;6.53;;;;;;;0.71;99.37;100821.84;5010540;28;20030;-85
2021/12/03 09:40:19;;;;;;;20.10;7.43;;;;;;;0.83;99.88;100821.72;5011519;28;20033;-84
2021/12/03 09:42:45;;;;;;;;;;;;;;;0.96;100.00;100825.97;4990415;28;20042;-85
2021/12/03 09:45:10;;;;;;;19.05;7.28;;;;;;;1.01;99.13;100818.03;4989669;28;19914;-86
2021/12/03 09:47:36;;;;;;;19.65;6.50;;;;;;;1.02;99.09;100813.66;4994904;28;20032;-86
2021/12/03 09:50:05;;;;;;;16.77;6.38;;;;;;;0.98;98.74;100824.16;5006654;28;20033;-85
2021/12/03 09:55:30;;;;;;;16.90;6.22;;;;;;;0.88;99.70;100798.97;4930630;29;20032;-83
2021/12/03 09:58:14;;;;;;;19.38;6.32;;;;;;;0.91;99.93;100790.19;4928944;29;20055;-85
2021/12/03 10:00:50;;;;;;;18.67;6.53;;;;;;;0.94;99.67;100779.69;4921018;29;20059;-86
2021/12/03 10:04:26;;;;;;;16.05;6.18;;;;;;;1.00;99.79;100790.06;4895328;29;20032;-85
2021/12/03 10:10:00;;;;;;;14.90;6.85;;;;;;;0.95;99.31;100784.88;4927735;29;20050;-83
2021/12/03 10:12:16;;;;;;;24.92;7.63;;;;;;;0.96;99.79;100777.88;4922583;29;20039;-85
2021/12/03 10:14:58;;;;;;;18.83;7.35;;;;;;;0.92;99.86;100773.56;4909678;29;20028;-88
2021/12/03 10:20:21;;;;;;;22.95;8.32;;;;;;;1.07;99.77;100767.28;4919867;29;20043;-84
2021/12/03 10:23:28;;;;;;;17.15;6.82;;;;;;;1.13;99.76;100759.31;4929079;29;20516;-86
2021/12/03 10:26:26;;;;;;;18.63;7.57;;;;;;;1.20;99.74;100753.13;4928848;29;20055;-85
2021/12/03 10:34:25;;;;;;;22.25;8.10;;;;;;;1.23;99.00;100722.47;5009013;28;20037;-86
2021/12/03 10:39:32;;;;;;;20.83;7.65;;;;;;;1.38;98.71;100700.44;5046697;28;20367;-86
2021/12/03 10:45:22;;;;;;;19.77;7.60;;;;;;;1.60;97.39;100705.31;5043650;28;20037;-86
2021/12/03 11:06:43;;;;;;;17.45;7.85;;;;;;;1.86;96.92;100655.03;5038046;28;20466;-87
2021/12/03 11:26:33;;;;;;;18.25;7.40;;;;;;;2.27;94.72;100627.97;5038947;28;20029;-84
2021/12/03 11:31:25;;;;;;;;;;;;;;;2.33;95.66;100612.06;5030219;28;20287;-85
2021/12/03 11:34:23;;;;;;;19.67;7.40;;;;;;;2.34;93.34;100599.81;5027380;28;20267;-84
2021/12/03 11:50:59;;;;;;;14.35;7.00;;;;;;;2.45;91.63;100567.16;5038096;28;20056;-84
2021/12/03 11:54:08;;;;;;;18.33;6.93;;;;;;;2.50;91.70;100575.81;5028165;28;20099;-85
2021/12/03 12:05:09;;;;;;;16.55;6.78;;;;;;;2.68;90.39;100548.28;5027994;28;20044;-85
2021/12/03 13:09:37;;;;;;;;;;;;;;;2.97;87.77;100450.31;4920642;29;20035;-86
2021/12/03 13:12:21;;;;;;;11.85;5.55;;;;;;;2.85;86.38;100447.13;4912263;29;20265;-85
2021/12/03 13:17:57;;;;;;;6.95;4.57;;;;;;;2.81;86.76;100434.97;4910949;29;20176;-85
2021/12/03 13:20:41;;;;;;;8.55;4.45;;;;;;;2.82;86.53;100450.69;4907813;29;20044;-86
2021/12/03 13:23:34;;;;;;;9.80;4.50;;;;;;;2.76;86.27;100442.97;4910539;29;20126;-85
2021/12/03 13:26:52;;;;;;;11.40;4.90;;;;;;;2.77;86.48;100428.91;4922479;29;20050;-85
2021/12/03 14:22:45;;;;;;;8.95;5.13;;;;;;;2.41;91.73;100380.78;4967362;28;20057;-86
2021/12/03 14:35:41;;;;;;;10.82;6.30;;;;;;;2.35;93.61;100370.44;4967632;28;20058;-84
2021/12/03 14:43:21;;;;;;;11.75;5.90;;;;;;;2.28;94.72;100372.34;4962385;28;20041;-84
2021/12/03 14:46:03;;;;;;;11.43;6.68;;;;;;;2.29;95.13;100381.06;5038217;28;20474;-86
2021/12/03 14:48:49;;;;;;;9.45;5.18;;;;;;;2.28;95.19;100376.72;5043803;28;20022;-85
2021/12/03 14:57:10;;;;;;;6.78;5.40;;;;;;;2.28;95.77;100380.22;5048323;28;20037;-86
2021/12/03 14:59:39;;;;;;;11.88;6.00;;;;;;;2.27;95.71;100375.00;5032933;28;20433;-85
2021/12/03 15:04:54;;;;;;;12.02;5.35;;;;;;;2.29;95.80;100370.56;5041288;28;20378;-85